sensor_id;sensor_type;location;lat;lon;timestamp;pressure;altitude;pressure_sealevel;temperature;humidity
78835;BME280;68187;42.682;23.352;2023-06-04T00:02:26;95294.72;;;16.46;75.67
78835;BME280;68187;42.682;23.352;2023-06-04T00:04:52;95307.25;;;16.45;75.52
78835;BME280;68187;42.682;23.352;2023-06-04T00:07:19;95276.94;;;16.27;76.07
78835;BME280;68187;42.682;23.352;2023-06-04T00:09:47;95301.13;;;16.44;75.90
78835;BME280;68187;42.682;23.352;2023-06-04T00:12:14;95309.03;;;16.50;75.82
78835;BME280;68187;42.682;23.352;2023-06-04T00:14:42;95305.97;;;16.42;75.94
78835;BME280;68187;42.682;23.352;2023-06-04T00:17:09;95304.56;;;16.45;75.65
78835;BME280;68187;42.682;23.352;2023-06-04T00:19:37;95298.84;;;16.38;75.58
78835;BME280;68187;42.682;23.352;2023-06-04T00:22:05;95299.06;;;16.41;75.35
78835;BME280;68187;42.682;23.352;2023-06-04T00:24:32;95300.44;;;16.39;75.58
78835;BME280;68187;42.682;23.352;2023-06-04T00:27:00;95288.97;;;16.38;75.66
78835;BME280;68187;42.682;23.352;2023-06-04T00:29:27;95301.63;;;16.47;75.42
78835;BME280;68187;42.682;23.352;2023-06-04T00:31:54;95263.03;;;16.30;75.40
78835;BME280;68187;42.682;23.352;2023-06-04T00:34:20;95287.78;;;16.44;75.57
78835;BME280;68187;42.682;23.352;2023-06-04T00:36:47;95290.75;;;16.43;75.46
78835;BME280;68187;42.682;23.352;2023-06-04T00:39:14;95287.91;;;16.39;75.75
78835;BME280;68187;42.682;23.352;2023-06-04T00:41:41;95290.25;;;16.41;75.96
78835;BME280;68187;42.682;23.352;2023-06-04T00:44:09;95285.81;;;16.36;76.18
78835;BME280;68187;42.682;23.352;2023-06-04T00:46:37;95293.25;;;16.39;76.28
78835;BME280;68187;42.682;23.352;2023-06-04T00:49:04;95287.91;;;16.39;76.65
78835;BME280;68187;42.682;23.352;2023-06-04T00:51:32;95281.38;;;16.32;76.33
78835;BME280;68187;42.682;23.352;2023-06-04T00:53:59;95290.09;;;16.37;76.58
78835;BME280;68187;42.682;23.352;2023-06-04T00:56:27;95295.09;;;16.39;77.36
78835;BME280;68187;42.682;23.352;2023-06-04T00:58:54;95293.81;;;16.36;77.28
78835;BME280;68187;42.682;23.352;2023-06-04T01:01:29;95301.03;;;16.36;77.16
78835;BME280;68187;42.682;23.352;2023-06-04T01:04:00;95284.34;;;16.30;77.52
78835;BME280;68187;42.682;23.352;2023-06-04T01:06:33;95293.63;;;16.33;77.69
78835;BME280;68187;42.682;23.352;2023-06-04T01:09:03;95278.81;;;16.27;77.64
78835;BME280;68187;42.682;23.352;2023-06-04T01:11:32;95295.50;;;16.32;77.69
78835;BME280;68187;42.682;23.352;2023-06-04T01:13:59;95288.59;;;16.31;77.81
78835;BME280;68187;42.682;23.352;2023-06-04T01:16:29;95299.94;;;16.37;77.87
78835;BME280;68187;42.682;23.352;2023-06-04T01:18:58;95294.31;;;16.38;77.66
78835;BME280;68187;42.682;23.352;2023-06-04T01:21:29;95284.75;;;16.37;77.81
78835;BME280;68187;42.682;23.352;2023-06-04T01:23:59;95281.97;;;16.29;77.70
78835;BME280;68187;42.682;23.352;2023-06-04T01:26:29;95288.50;;;16.36;77.50
78835;BME280;68187;42.682;23.352;2023-06-04T01:28:58;95292.84;;;16.32;77.30
78835;BME280;68187;42.682;23.352;2023-06-04T01:31:25;95289.78;;;16.25;76.70
78835;BME280;68187;42.682;23.352;2023-06-04T01:33:53;95300.44;;;16.25;76.72
78835;BME280;68187;42.682;23.352;2023-06-04T01:36:21;95302.63;;;16.23;76.82
78835;BME280;68187;42.682;23.352;2023-06-04T01:38:48;95293.50;;;16.11;76.60
78835;BME280;68187;42.682;23.352;2023-06-04T01:41:15;95306.75;;;16.16;76.57
78835;BME280;68187;42.682;23.352;2023-06-04T01:43:42;95311.75;;;16.17;76.63
78835;BME280;68187;42.682;23.352;2023-06-04T01:46:09;95304.16;;;16.11;76.65
78835;BME280;68187;42.682;23.352;2023-06-04T01:48:36;95301.72;;;16.14;75.97
78835;BME280;68187;42.682;23.352;2023-06-04T01:51:05;95289.03;;;15.93;76.16
78835;BME280;68187;42.682;23.352;2023-06-04T01:53:32;95300.41;;;15.98;76.44
78835;BME280;68187;42.682;23.352;2023-06-04T01:55:59;95318.66;;;16.05;76.77
78835;BME280;68187;42.682;23.352;2023-06-04T01:58:26;95311.38;;;15.97;76.87
78835;BME280;68187;42.682;23.352;2023-06-04T02:00:54;95309.97;;;15.99;77.02
78835;BME280;68187;42.682;23.352;2023-06-04T02:03:21;95311.16;;;15.93;77.16
78835;BME280;68187;42.682;23.352;2023-06-04T02:05:48;95311.22;;;15.88;77.49
78835;BME280;68187;42.682;23.352;2023-06-04T02:08:17;95319.63;;;15.95;77.44
78835;BME280;68187;42.682;23.352;2023-06-04T02:10:45;95316.06;;;15.86;77.72
78835;BME280;68187;42.682;23.352;2023-06-04T02:13:12;95320.72;;;15.94;77.84
78835;BME280;68187;42.682;23.352;2023-06-04T02:15:39;95249.88;;;15.47;78.19
78835;BME280;68187;42.682;23.352;2023-06-04T02:18:13;95321.22;;;15.96;78.02
78835;BME280;68187;42.682;23.352;2023-06-04T02:20:42;95327.94;;;15.94;78.26
78835;BME280;68187;42.682;23.352;2023-06-04T02:23:09;95326.94;;;15.90;78.27
78835;BME280;68187;42.682;23.352;2023-06-04T02:25:37;95333.44;;;15.97;78.41
78835;BME280;68187;42.682;23.352;2023-06-04T02:28:04;95317.06;;;15.90;78.26
78835;BME280;68187;42.682;23.352;2023-06-04T02:30:31;95339.38;;;15.94;78.26
78835;BME280;68187;42.682;23.352;2023-06-04T02:32:57;95341.25;;;15.94;78.62
78835;BME280;68187;42.682;23.352;2023-06-04T02:35:26;95343.13;;;15.93;78.71
78835;BME280;68187;42.682;23.352;2023-06-04T02:37:53;95341.75;;;15.96;78.67
78835;BME280;68187;42.682;23.352;2023-06-04T02:40:21;95338.88;;;15.92;78.24
78835;BME280;68187;42.682;23.352;2023-06-04T02:42:50;95345.13;;;16.01;78.12
78835;BME280;68187;42.682;23.352;2023-06-04T02:45:16;95323.06;;;15.82;77.90
78835;BME280;68187;42.682;23.352;2023-06-04T02:47:43;95351.03;;;15.98;78.15
78835;BME280;68187;42.682;23.352;2023-06-04T02:50:11;95352.19;;;15.92;78.08
78835;BME280;68187;42.682;23.352;2023-06-04T02:52:38;95359.50;;;16.00;78.26
78835;BME280;68187;42.682;23.352;2023-06-04T02:55:06;95357.91;;;15.99;78.65
78835;BME280;68187;42.682;23.352;2023-06-04T02:57:33;95367.19;;;16.02;78.66
78835;BME280;68187;42.682;23.352;2023-06-04T03:00:01;95342.63;;;15.91;78.71
78835;BME280;68187;42.682;23.352;2023-06-04T03:02:35;95357.72;;;15.96;78.57
78835;BME280;68187;42.682;23.352;2023-06-04T03:05:02;95371.16;;;16.04;78.72
78835;BME280;68187;42.682;23.352;2023-06-04T03:07:29;95368.50;;;16.04;78.84
78835;BME280;68187;42.682;23.352;2023-06-04T03:09:56;95364.25;;;16.03;79.19
78835;BME280;68187;42.682;23.352;2023-06-04T03:12:23;95358.44;;;16.01;78.88
78835;BME280;68187;42.682;23.352;2023-06-04T03:14:50;95349.53;;;15.92;78.85
78835;BME280;68187;42.682;23.352;2023-06-04T03:17:18;95365.25;;;16.07;78.87
78835;BME280;68187;42.682;23.352;2023-06-04T03:19:45;95367.44;;;16.05;78.97
78835;BME280;68187;42.682;23.352;2023-06-04T03:22:13;95364.47;;;16.07;78.36
78835;BME280;68187;42.682;23.352;2023-06-04T03:24:40;95366.06;;;16.08;78.73
78835;BME280;68187;42.682;23.352;2023-06-04T03:27:08;95368.41;;;16.09;78.53
78835;BME280;68187;42.682;23.352;2023-06-04T03:29:35;95370.78;;;16.11;78.70
78835;BME280;68187;42.682;23.352;2023-06-04T03:32:03;95355.56;;;15.98;78.68
78835;BME280;68187;42.682;23.352;2023-06-04T03:34:31;95378.00;;;16.10;78.34
78835;BME280;68187;42.682;23.352;2023-06-04T03:36:58;95384.72;;;16.08;78.41
78835;BME280;68187;42.682;23.352;2023-06-04T03:39:25;95384.22;;;16.06;78.37
78835;BME280;68187;42.682;23.352;2023-06-04T03:41:52;95385.78;;;16.07;78.77
78835;BME280;68187;42.682;23.352;2023-06-04T03:44:20;95395.06;;;16.09;78.94
78835;BME280;68187;42.682;23.352;2023-06-04T03:46:47;95374.69;;;16.00;78.73
78835;BME280;68187;42.682;23.352;2023-06-04T03:49:14;95375.91;;;16.07;78.64
78835;BME280;68187;42.682;23.352;2023-06-04T03:51:44;95396.06;;;16.13;78.61
78835;BME280;68187;42.682;23.352;2023-06-04T03:54:11;95396.06;;;16.13;78.22
78835;BME280;68187;42.682;23.352;2023-06-04T03:56:42;95383.41;;;16.05;78.60
78835;BME280;68187;42.682;23.352;2023-06-04T03:59:09;95389.16;;;16.12;78.77
78835;BME280;68187;42.682;23.352;2023-06-04T04:01:36;95357.53;;;15.92;78.46
78835;BME280;68187;42.682;23.352;2023-06-04T04:04:04;95372.50;;;15.88;78.46
78835;BME280;68187;42.682;23.352;2023-06-04T04:06:31;95385.19;;;16.10;78.53
78835;BME280;68187;42.682;23.352;2023-06-04T04:08:59;95405.34;;;16.16;78.65
78835;BME280;68187;42.682;23.352;2023-06-04T04:11:25;95388.66;;;16.10;78.65
78835;BME280;68187;42.682;23.352;2023-06-04T04:13:52;95407.44;;;16.19;78.77
78835;BME280;68187;42.682;23.352;2023-06-04T04:16:19;95407.13;;;16.20;78.85
78835;BME280;68187;42.682;23.352;2023-06-04T04:18:46;95384.91;;;16.11;78.31
78835;BME280;68187;42.682;23.352;2023-06-04T04:21:12;95407.94;;;16.21;78.39
78835;BME280;68187;42.682;23.352;2023-06-04T04:23:39;95415.91;;;16.21;78.39
78835;BME280;68187;42.682;23.352;2023-06-04T04:26:08;95394.38;;;16.17;78.07
78835;BME280;68187;42.682;23.352;2023-06-04T04:28:35;95381.44;;;16.11;78.24
78835;BME280;68187;42.682;23.352;2023-06-04T04:31:02;95408.59;;;16.26;78.18
78835;BME280;68187;42.682;23.352;2023-06-04T04:33:29;95403.88;;;16.23;78.16
78835;BME280;68187;42.682;23.352;2023-06-04T04:35:58;95414.75;;;16.27;78.05
78835;BME280;68187;42.682;23.352;2023-06-04T04:38:25;95407.72;;;16.31;78.02
78835;BME280;68187;42.682;23.352;2023-06-04T04:40:53;95403.69;;;16.33;77.78
78835;BME280;68187;42.682;23.352;2023-06-04T04:43:30;95411.50;;;16.30;77.97
78835;BME280;68187;42.682;23.352;2023-06-04T04:45:57;95411.13;;;16.36;77.73
78835;BME280;68187;42.682;23.352;2023-06-04T04:48:24;95412.41;;;16.39;78.03
78835;BME280;68187;42.682;23.352;2023-06-04T04:50:51;95411.81;;;16.42;78.17
78835;BME280;68187;42.682;23.352;2023-06-04T04:53:17;95414.88;;;16.49;77.88
78835;BME280;68187;42.682;23.352;2023-06-04T04:55:44;95409.28;;;16.51;77.46
78835;BME280;68187;42.682;23.352;2023-06-04T04:58:11;95413.81;;;16.50;77.50
78835;BME280;68187;42.682;23.352;2023-06-04T05:00:40;95412.47;;;16.53;77.23
78835;BME280;68187;42.682;23.352;2023-06-04T05:03:06;95402.34;;;16.50;77.01
78835;BME280;68187;42.682;23.352;2023-06-04T05:05:33;95408.72;;;16.54;76.76
78835;BME280;68187;42.682;23.352;2023-06-04T05:08:00;95396.94;;;16.55;76.73
78835;BME280;68187;42.682;23.352;2023-06-04T05:10:27;95402.50;;;16.58;76.76
78835;BME280;68187;42.682;23.352;2023-06-04T05:12:54;95412.06;;;16.73;76.90
78835;BME280;68187;42.682;23.352;2023-06-04T05:15:21;95415.44;;;16.78;77.13
78835;BME280;68187;42.682;23.352;2023-06-04T05:17:49;95423.63;;;16.82;76.91
78835;BME280;68187;42.682;23.352;2023-06-04T05:20:18;95418.41;;;16.77;76.93
78835;BME280;68187;42.682;23.352;2023-06-04T05:22:46;95428.00;;;16.91;76.83
78835;BME280;68187;42.682;23.352;2023-06-04T05:25:13;95405.28;;;16.80;76.70
78835;BME280;68187;42.682;23.352;2023-06-04T05:27:40;95425.91;;;17.02;76.45
78835;BME280;68187;42.682;23.352;2023-06-04T05:30:09;95421.78;;;16.96;75.85
78835;BME280;68187;42.682;23.352;2023-06-04T05:32:36;95428.09;;;17.00;75.96
78835;BME280;68187;42.682;23.352;2023-06-04T05:35:08;95422.34;;;16.93;75.39
78835;BME280;68187;42.682;23.352;2023-06-04T05:37:35;95416.13;;;16.84;75.26
78835;BME280;68187;42.682;23.352;2023-06-04T05:40:04;95432.75;;;16.94;74.67
78835;BME280;68187;42.682;23.352;2023-06-04T05:42:32;95435.03;;;16.87;74.12
78835;BME280;68187;42.682;23.352;2023-06-04T05:44:59;95430.56;;;16.83;74.23
78835;BME280;68187;42.682;23.352;2023-06-04T05:47:26;95430.25;;;16.84;74.50
78835;BME280;68187;42.682;23.352;2023-06-04T05:49:54;95438.84;;;16.95;74.42
78835;BME280;68187;42.682;23.352;2023-06-04T05:52:22;95442.63;;;16.94;74.12
78835;BME280;68187;42.682;23.352;2023-06-04T05:54:49;95446.66;;;16.91;73.73
78835;BME280;68187;42.682;23.352;2023-06-04T05:57:15;95438.56;;;16.83;73.07
78835;BME280;68187;42.682;23.352;2023-06-04T05:59:42;95454.09;;;16.94;72.98
78835;BME280;68187;42.682;23.352;2023-06-04T06:02:09;95450.13;;;16.92;73.28
78835;BME280;68187;42.682;23.352;2023-06-04T06:04:35;95427.50;;;16.89;72.72
78835;BME280;68187;42.682;23.352;2023-06-04T06:07:03;95455.16;;;17.07;73.21
78835;BME280;68187;42.682;23.352;2023-06-04T06:09:31;95444.09;;;17.00;72.58
78835;BME280;68187;42.682;23.352;2023-06-04T06:11:58;95446.19;;;17.03;72.76
78835;BME280;68187;42.682;23.352;2023-06-04T06:14:25;95464.16;;;17.11;71.56
78835;BME280;68187;42.682;23.352;2023-06-04T06:16:51;95455.25;;;17.02;71.96
78835;BME280;68187;42.682;23.352;2023-06-04T06:19:19;95457.03;;;17.06;71.88
78835;BME280;68187;42.682;23.352;2023-06-04T06:21:46;95466.34;;;17.09;72.24
78835;BME280;68187;42.682;23.352;2023-06-04T06:24:12;95448.34;;;17.15;72.13
78835;BME280;68187;42.682;23.352;2023-06-04T06:26:40;95466.63;;;17.35;71.97
78835;BME280;68187;42.682;23.352;2023-06-04T06:29:08;95460.28;;;17.44;71.34
78835;BME280;68187;42.682;23.352;2023-06-04T06:31:34;95447.53;;;17.41;70.74
78835;BME280;68187;42.682;23.352;2023-06-04T06:34:01;95400.91;;;17.11;70.00
78835;BME280;68187;42.682;23.352;2023-06-04T06:36:28;95455.44;;;17.60;70.28
78835;BME280;68187;42.682;23.352;2023-06-04T06:38:54;95458.97;;;17.69;70.91
78835;BME280;68187;42.682;23.352;2023-06-04T06:41:21;95454.03;;;17.76;69.71
78835;BME280;68187;42.682;23.352;2023-06-04T06:43:49;95463.66;;;17.86;69.67
78835;BME280;68187;42.682;23.352;2023-06-04T06:46:16;95474.66;;;17.84;69.52
78835;BME280;68187;42.682;23.352;2023-06-04T06:48:43;95469.00;;;17.86;69.59
78835;BME280;68187;42.682;23.352;2023-06-04T06:51:10;95450.34;;;17.72;69.54
78835;BME280;68187;42.682;23.352;2023-06-04T06:53:37;95465.84;;;17.83;69.51
78835;BME280;68187;42.682;23.352;2023-06-04T06:56:05;95433.88;;;17.56;68.68
78835;BME280;68187;42.682;23.352;2023-06-04T06:58:31;95457.28;;;17.73;68.07
78835;BME280;68187;42.682;23.352;2023-06-04T07:00:59;95479.03;;;17.80;68.11
78835;BME280;68187;42.682;23.352;2023-06-04T07:03:26;95483.28;;;17.81;68.03
78835;BME280;68187;42.682;23.352;2023-06-04T07:05:53;95467.06;;;17.77;68.55
78835;BME280;68187;42.682;23.352;2023-06-04T07:08:20;95468.75;;;17.73;68.63
78835;BME280;68187;42.682;23.352;2023-06-04T07:10:47;95487.22;;;17.83;68.69
78835;BME280;68187;42.682;23.352;2023-06-04T07:13:13;95473.38;;;17.81;68.54
78835;BME280;68187;42.682;23.352;2023-06-04T07:15:40;95484.03;;;17.95;68.90
78835;BME280;68187;42.682;23.352;2023-06-04T07:18:08;95468.16;;;17.76;68.49
78835;BME280;68187;42.682;23.352;2023-06-04T07:20:35;95503.44;;;18.01;68.30
78835;BME280;68187;42.682;23.352;2023-06-04T07:23:02;95496.50;;;18.00;68.81
78835;BME280;68187;42.682;23.352;2023-06-04T07:25:29;95486.44;;;17.97;68.72
78835;BME280;68187;42.682;23.352;2023-06-04T07:27:55;95482.84;;;18.01;68.78
78835;BME280;68187;42.682;23.352;2023-06-04T07:30:23;95491.16;;;18.00;69.17
78835;BME280;68187;42.682;23.352;2023-06-04T07:32:50;95506.53;;;18.16;69.28
78835;BME280;68187;42.682;23.352;2023-06-04T07:35:18;95505.03;;;18.24;69.57
78835;BME280;68187;42.682;23.352;2023-06-04T07:37:44;95502.41;;;18.32;68.59
78835;BME280;68187;42.682;23.352;2023-06-04T07:40:13;95494.69;;;18.31;68.88
78835;BME280;68187;42.682;23.352;2023-06-04T07:42:40;95479.88;;;18.25;68.90
78835;BME280;68187;42.682;23.352;2023-06-04T07:45:08;95506.63;;;18.47;68.57
78835;BME280;68187;42.682;23.352;2023-06-04T07:47:35;95508.59;;;18.55;68.97
78835;BME280;68187;42.682;23.352;2023-06-04T07:50:03;95506.63;;;18.69;68.06
78835;BME280;68187;42.682;23.352;2023-06-04T07:52:31;95499.69;;;18.68;67.85
78835;BME280;68187;42.682;23.352;2023-06-04T07:54:58;95496.41;;;18.71;68.18
78835;BME280;68187;42.682;23.352;2023-06-04T07:57:25;95513.94;;;18.86;67.51
78835;BME280;68187;42.682;23.352;2023-06-04T07:59:52;95493.31;;;18.78;67.35
78835;BME280;68187;42.682;23.352;2023-06-04T08:02:19;95519.09;;;19.04;67.41
78835;BME280;68187;42.682;23.352;2023-06-04T08:04:46;95504.16;;;19.03;65.83
78835;BME280;68187;42.682;23.352;2023-06-04T08:07:12;95507.00;;;19.15;66.50
78835;BME280;68187;42.682;23.352;2023-06-04T08:09:41;95504.63;;;19.05;66.89
78835;BME280;68187;42.682;23.352;2023-06-04T08:12:09;95511.16;;;19.21;66.39
78835;BME280;68187;42.682;23.352;2023-06-04T08:14:36;95501.41;;;19.26;65.10
78835;BME280;68187;42.682;23.352;2023-06-04T08:17:02;95508.66;;;19.34;64.80
78835;BME280;68187;42.682;23.352;2023-06-04T08:19:29;95507.09;;;19.33;65.06
78835;BME280;68187;42.682;23.352;2023-06-04T08:21:56;95445.72;;;19.05;65.00
78835;BME280;68187;42.682;23.352;2023-06-04T08:24:23;95506.56;;;19.53;64.46
78835;BME280;68187;42.682;23.352;2023-06-04T08:26:51;95501.00;;;19.49;65.08
78835;BME280;68187;42.682;23.352;2023-06-04T08:29:18;95514.16;;;19.68;65.32
78835;BME280;68187;42.682;23.352;2023-06-04T08:31:45;95504.06;;;19.65;64.78
78835;BME280;68187;42.682;23.352;2023-06-04T08:34:11;95514.00;;;19.73;64.95
78835;BME280;68187;42.682;23.352;2023-06-04T08:36:38;95515.28;;;19.75;63.75
78835;BME280;68187;42.682;23.352;2023-06-04T08:39:05;95523.00;;;19.77;63.81
78835;BME280;68187;42.682;23.352;2023-06-04T08:41:39;95504.22;;;19.68;65.26
78835;BME280;68187;42.682;23.352;2023-06-04T08:44:09;95535.63;;;19.85;63.09
78835;BME280;68187;42.682;23.352;2023-06-04T08:46:37;95531.22;;;19.80;62.48
78835;BME280;68187;42.682;23.352;2023-06-04T08:49:05;95539.06;;;19.77;63.43
78835;BME280;68187;42.682;23.352;2023-06-04T08:51:34;95532.91;;;19.68;63.41
78835;BME280;68187;42.682;23.352;2023-06-04T08:54:03;95511.91;;;19.44;63.39
78835;BME280;68187;42.682;23.352;2023-06-04T08:56:31;95541.06;;;19.54;63.84
78835;BME280;68187;42.682;23.352;2023-06-04T08:59:00;95517.81;;;19.33;63.96
78835;BME280;68187;42.682;23.352;2023-06-04T09:01:30;95525.56;;;19.43;63.66
78835;BME280;68187;42.682;23.352;2023-06-04T09:03:58;95550.22;;;19.53;63.64
78835;BME280;68187;42.682;23.352;2023-06-04T09:06:25;95531.41;;;19.45;63.64
78835;BME280;68187;42.682;23.352;2023-06-04T09:08:56;95546.75;;;19.61;62.87
78835;BME280;68187;42.682;23.352;2023-06-04T09:11:26;95535.88;;;19.58;62.29
78835;BME280;68187;42.682;23.352;2023-06-04T09:13:53;95531.75;;;19.52;62.47
78835;BME280;68187;42.682;23.352;2023-06-04T09:16:23;95555.28;;;19.72;61.05
78835;BME280;68187;42.682;23.352;2023-06-04T09:18:51;95548.06;;;19.81;60.89
78835;BME280;68187;42.682;23.352;2023-06-04T09:21:19;95549.19;;;19.80;60.41
78835;BME280;68187;42.682;23.352;2023-06-04T09:23:47;95546.38;;;19.93;59.81
78835;BME280;68187;42.682;23.352;2023-06-04T09:26:14;95544.81;;;20.01;60.46
78835;BME280;68187;42.682;23.352;2023-06-04T09:28:42;95548.78;;;20.12;60.89
78835;BME280;68187;42.682;23.352;2023-06-04T09:31:10;95536.66;;;20.23;60.40
78835;BME280;68187;42.682;23.352;2023-06-04T09:33:43;95535.06;;;20.31;59.84
78835;BME280;68187;42.682;23.352;2023-06-04T09:36:12;95548.16;;;20.41;59.31
78835;BME280;68187;42.682;23.352;2023-06-04T09:38:39;95538.69;;;20.26;58.53
78835;BME280;68187;42.682;23.352;2023-06-04T09:41:11;95537.44;;;20.24;58.88
78835;BME280;68187;42.682;23.352;2023-06-04T09:43:37;95551.19;;;20.39;59.07
78835;BME280;68187;42.682;23.352;2023-06-04T09:46:09;95520.56;;;20.23;58.61
78835;BME280;68187;42.682;23.352;2023-06-04T09:48:37;95527.03;;;20.22;58.01
78835;BME280;68187;42.682;23.352;2023-06-04T09:51:07;95542.81;;;20.32;58.60
78835;BME280;68187;42.682;23.352;2023-06-04T09:53:36;95534.63;;;20.37;58.44
78835;BME280;68187;42.682;23.352;2023-06-04T09:56:03;95526.38;;;20.34;58.70
78835;BME280;68187;42.682;23.352;2023-06-04T09:58:32;95534.91;;;20.36;58.36
78835;BME280;68187;42.682;23.352;2023-06-04T10:01:01;95521.00;;;20.42;60.07
78835;BME280;68187;42.682;23.352;2023-06-04T10:03:30;95522.75;;;20.55;57.47
78835;BME280;68187;42.682;23.352;2023-06-04T10:05:59;95536.91;;;20.82;56.67
78835;BME280;68187;42.682;23.352;2023-06-04T10:08:27;95544.81;;;20.87;57.13
78835;BME280;68187;42.682;23.352;2023-06-04T10:10:56;95491.16;;;20.61;57.45
78835;BME280;68187;42.682;23.352;2023-06-04T10:13:27;95522.72;;;20.90;57.17
78835;BME280;68187;42.682;23.352;2023-06-04T10:15:57;95520.66;;;20.87;57.35
78835;BME280;68187;42.682;23.352;2023-06-04T10:18:25;95516.03;;;20.96;58.12
78835;BME280;68187;42.682;23.352;2023-06-04T10:20:54;95543.28;;;21.32;56.10
78835;BME280;68187;42.682;23.352;2023-06-04T10:23:22;95510.09;;;21.37;55.57
78835;BME280;68187;42.682;23.352;2023-06-04T10:25:50;95529.63;;;21.83;56.67
78835;BME280;68187;42.682;23.352;2023-06-04T10:28:19;95524.69;;;22.15;54.38
78835;BME280;68187;42.682;23.352;2023-06-04T10:30:46;95511.44;;;22.10;53.20
78835;BME280;68187;42.682;23.352;2023-06-04T10:33:16;95513.19;;;22.26;52.36
78835;BME280;68187;42.682;23.352;2023-06-04T10:35:43;95526.34;;;22.28;52.35
78835;BME280;68187;42.682;23.352;2023-06-04T10:38:11;95525.88;;;22.05;52.81
78835;BME280;68187;42.682;23.352;2023-06-04T10:40:39;95522.56;;;21.99;52.89
78835;BME280;68187;42.682;23.352;2023-06-04T10:43:06;95513.34;;;21.80;53.03
78835;BME280;68187;42.682;23.352;2023-06-04T10:45:35;95507.69;;;21.73;53.35
78835;BME280;68187;42.682;23.352;2023-06-04T10:48:02;95511.34;;;21.68;53.41
78835;BME280;68187;42.682;23.352;2023-06-04T10:50:29;95525.72;;;21.72;53.62
78835;BME280;68187;42.682;23.352;2023-06-04T10:52:56;95526.22;;;21.66;54.13
78835;BME280;68187;42.682;23.352;2023-06-04T10:55:24;95514.66;;;21.74;54.77
78835;BME280;68187;42.682;23.352;2023-06-04T10:57:52;95509.56;;;21.72;54.28
78835;BME280;68187;42.682;23.352;2023-06-04T11:00:19;95494.56;;;21.71;53.96
78835;BME280;68187;42.682;23.352;2023-06-04T11:02:52;95518.50;;;21.93;52.26
78835;BME280;68187;42.682;23.352;2023-06-04T11:05:20;95518.69;;;21.88;52.43
78835;BME280;68187;42.682;23.352;2023-06-04T11:07:48;95519.31;;;21.85;52.47
78835;BME280;68187;42.682;23.352;2023-06-04T11:10:16;95518.38;;;21.81;53.93
78835;BME280;68187;42.682;23.352;2023-06-04T11:12:44;95511.69;;;21.67;52.53
78835;BME280;68187;42.682;23.352;2023-06-04T11:15:12;95520.22;;;21.69;53.51
78835;BME280;68187;42.682;23.352;2023-06-04T11:17:49;95530.97;;;21.69;54.67
78835;BME280;68187;42.682;23.352;2023-06-04T11:20:18;95525.75;;;21.64;53.83
78835;BME280;68187;42.682;23.352;2023-06-04T11:22:51;95523.13;;;21.55;53.59
78835;BME280;68187;42.682;23.352;2023-06-04T11:25:18;95514.78;;;21.48;53.44
78835;BME280;68187;42.682;23.352;2023-06-04T11:27:45;95504.88;;;21.31;54.38
78835;BME280;68187;42.682;23.352;2023-06-04T11:30:12;95511.97;;;21.36;54.77
78835;BME280;68187;42.682;23.352;2023-06-04T11:32:40;95496.56;;;21.16;55.20
78835;BME280;68187;42.682;23.352;2023-06-04T11:35:07;95499.38;;;21.19;54.86
78835;BME280;68187;42.682;23.352;2023-06-04T11:37:38;95524.13;;;21.42;55.29
78835;BME280;68187;42.682;23.352;2023-06-04T11:40:15;95483.72;;;21.30;54.48
78835;BME280;68187;42.682;23.352;2023-06-04T11:42:43;95516.56;;;21.65;54.10
78835;BME280;68187;42.682;23.352;2023-06-04T11:45:11;95509.00;;;21.58;54.22
78835;BME280;68187;42.682;23.352;2023-06-04T11:47:39;95523.88;;;21.56;54.53
78835;BME280;68187;42.682;23.352;2023-06-04T11:50:07;95527.28;;;21.44;54.96
78835;BME280;68187;42.682;23.352;2023-06-04T11:52:34;95526.03;;;21.42;54.31
78835;BME280;68187;42.682;23.352;2023-06-04T11:55:02;95518.69;;;21.21;54.46
78835;BME280;68187;42.682;23.352;2023-06-04T11:57:29;95503.72;;;21.03;55.44
78835;BME280;68187;42.682;23.352;2023-06-04T11:59:56;95513.38;;;21.04;55.59
78835;BME280;68187;42.682;23.352;2023-06-04T12:02:23;95532.16;;;20.96;56.47
78835;BME280;68187;42.682;23.352;2023-06-04T12:04:50;95511.81;;;20.86;56.82
78835;BME280;68187;42.682;23.352;2023-06-04T12:07:19;95521.75;;;20.86;57.17
78835;BME280;68187;42.682;23.352;2023-06-04T12:09:49;95509.16;;;20.69;57.31
78835;BME280;68187;42.682;23.352;2023-06-04T12:12:21;95531.88;;;20.80;57.19
78835;BME280;68187;42.682;23.352;2023-06-04T12:14:56;95530.16;;;20.76;58.12
78835;BME280;68187;42.682;23.352;2023-06-04T12:17:23;95518.00;;;20.61;57.42
78835;BME280;68187;42.682;23.352;2023-06-04T12:19:50;95535.34;;;20.72;57.04
78835;BME280;68187;42.682;23.352;2023-06-04T12:22:17;95536.31;;;20.68;57.26
78835;BME280;68187;42.682;23.352;2023-06-04T12:24:49;95524.19;;;20.53;56.76
78835;BME280;68187;42.682;23.352;2023-06-04T12:27:20;95539.00;;;20.59;57.27
78835;BME280;68187;42.682;23.352;2023-06-04T12:29:58;95534.75;;;20.67;57.79
78835;BME280;68187;42.682;23.352;2023-06-04T12:32:25;95512.97;;;20.51;57.32
78835;BME280;68187;42.682;23.352;2023-06-04T12:34:52;95535.22;;;20.60;58.02
78835;BME280;68187;42.682;23.352;2023-06-04T12:37:20;95531.91;;;20.54;58.59
78835;BME280;68187;42.682;23.352;2023-06-04T12:39:47;95529.84;;;20.51;58.10
78835;BME280;68187;42.682;23.352;2023-06-04T12:42:13;95529.38;;;20.49;57.67
78835;BME280;68187;42.682;23.352;2023-06-04T12:44:41;95531.59;;;20.47;58.50
78835;BME280;68187;42.682;23.352;2023-06-04T12:47:08;95523.88;;;20.46;58.08
78835;BME280;68187;42.682;23.352;2023-06-04T12:49:35;95524.81;;;20.41;58.22
78835;BME280;68187;42.682;23.352;2023-06-04T12:52:02;95525.59;;;20.50;58.00
78835;BME280;68187;42.682;23.352;2023-06-04T12:54:29;95530.03;;;20.46;58.75